createdAt,value
2023-05-07T00:00:00.396Z,71.13
2023-05-07T00:02:27.198Z,71.53
2023-05-07T00:04:54.119Z,71.60
2023-05-07T00:07:21.088Z,72.11
2023-05-07T00:09:47.940Z,72.30
2023-05-07T00:12:15.353Z,72.68
2023-05-07T00:14:42.199Z,72.92
2023-05-07T00:17:09.040Z,73.29
2023-05-07T00:19:36.042Z,73.28
2023-05-07T00:22:03.026Z,73.17
2023-05-07T00:24:29.994Z,73.45
2023-05-07T00:26:58.510Z,73.79
2023-05-07T00:29:25.570Z,73.94
2023-05-07T00:31:54.543Z,73.95
2023-05-07T00:34:21.532Z,73.93
2023-05-07T00:36:48.718Z,74.30
2023-05-07T00:39:15.489Z,74.26
2023-05-07T00:41:42.614Z,74.35
2023-05-07T00:44:12.002Z,74.46
2023-05-07T00:46:39.706Z,74.60
2023-05-07T00:49:07.042Z,74.69
2023-05-07T00:51:34.254Z,74.91
2023-05-07T00:54:02.440Z,74.99
2023-05-07T00:56:29.390Z,75.30
2023-05-07T00:58:56.391Z,75.47
2023-05-07T01:01:23.373Z,75.82
2023-05-07T01:03:50.335Z,75.84
2023-05-07T01:06:17.789Z,76.09
2023-05-07T01:08:45.427Z,76.16
2023-05-07T01:11:12.379Z,75.93
2023-05-07T01:13:39.322Z,75.98
2023-05-07T01:16:07.261Z,76.19
2023-05-07T01:18:34.461Z,76.53
2023-05-07T01:21:02.434Z,76.42
2023-05-07T01:23:29.282Z,76.93
2023-05-07T01:25:56.158Z,77.17
2023-05-07T01:28:25.636Z,77.25
2023-05-07T01:30:56.800Z,77.55
2023-05-07T01:33:24.561Z,77.35
2023-05-07T01:35:53.539Z,77.70
2023-05-07T01:38:22.083Z,77.92
2023-05-07T01:40:48.871Z,77.84
2023-05-07T01:43:17.298Z,78.05
2023-05-07T01:45:44.991Z,77.89
2023-05-07T01:48:12.085Z,78.22
2023-05-07T01:50:39.047Z,78.52
2023-05-07T01:53:06.037Z,78.46
2023-05-07T01:55:32.938Z,78.48
2023-05-07T01:58:00.385Z,78.86
2023-05-07T02:00:27.707Z,79.03
2023-05-07T02:02:55.094Z,79.44
2023-05-07T02:05:33.322Z,79.18
2023-05-07T02:08:06.502Z,79.49
2023-05-07T02:10:33.529Z,79.44
2023-05-07T02:13:02.417Z,79.63
2023-05-07T02:15:29.713Z,79.78
2023-05-07T02:18:03.130Z,80.22
2023-05-07T02:20:30.212Z,79.95
2023-05-07T02:22:57.226Z,80.08
2023-05-07T02:25:24.291Z,80.15
2023-05-07T02:27:51.287Z,80.33
2023-05-07T02:30:18.787Z,80.43
2023-05-07T02:32:46.101Z,80.15
2023-05-07T02:35:13.299Z,79.99
2023-05-07T02:37:40.315Z,80.10
2023-05-07T02:43:48.942Z,80.40
2023-05-07T02:46:17.563Z,80.43
2023-05-07T02:48:47.339Z,80.54
2023-05-07T02:51:14.291Z,80.32
2023-05-07T02:53:42.978Z,80.40
2023-05-07T02:56:09.845Z,80.28
2023-05-07T02:58:37.172Z,80.16
2023-05-07T03:01:04.557Z,80.17
2023-05-07T03:03:36.597Z,79.99
2023-05-07T03:06:03.861Z,79.83
2023-05-07T03:08:31.037Z,79.78
2023-05-07T03:13:14.120Z,79.82
2023-05-07T03:15:41.433Z,79.84
2023-05-07T03:18:08.617Z,79.99
2023-05-07T03:20:37.896Z,79.83
2023-05-07T03:23:05.111Z,79.69
2023-05-07T03:25:33.129Z,79.28
2023-05-07T03:28:00.148Z,78.51
2023-05-07T03:30:34.086Z,78.25
2023-05-07T03:33:01.200Z,78.45
2023-05-07T03:35:28.781Z,78.09
2023-05-07T03:37:57.006Z,77.80
2023-05-07T03:40:24.126Z,77.55
2023-05-07T03:42:53.410Z,77.53
2023-05-07T03:45:21.909Z,77.55
2023-05-07T03:47:54.701Z,77.55
2023-05-07T03:50:22.175Z,77.37
2023-05-07T03:52:49.527Z,77.30
2023-05-07T03:55:19.264Z,77.33
2023-05-07T03:57:51.058Z,77.01
2023-05-07T04:00:21.373Z,76.72
2023-05-07T04:02:48.919Z,76.53
2023-05-07T04:05:19.718Z,76.32
2023-05-07T04:07:48.669Z,76.12
2023-05-07T04:10:16.820Z,75.47
2023-05-07T04:12:44.848Z,75.03
2023-05-07T04:15:14.118Z,74.53
2023-05-07T04:17:43.063Z,72.97
2023-05-07T04:20:11.984Z,71.34
2023-05-07T04:22:39.646Z,69.46
2023-05-07T04:25:07.572Z,67.92
2023-05-07T04:27:36.116Z,67.20
2023-05-07T04:30:04.454Z,64.57
2023-05-07T04:32:34.958Z,61.07
2023-05-07T04:35:03.089Z,57.60
2023-05-07T04:37:33.538Z,55.38
2023-05-07T04:40:01.639Z,53.09
2023-05-07T04:42:29.479Z,50.81
2023-05-07T04:44:57.692Z,51.85
2023-05-07T04:47:24.844Z,52.31
2023-05-07T04:49:53.380Z,51.20
2023-05-07T04:52:20.623Z,47.96
2023-05-07T04:54:48.580Z,45.37
2023-05-07T04:57:16.099Z,43.43
2023-05-07T04:59:43.494Z,42.41
2023-05-07T05:02:12.661Z,41.90
2023-05-07T05:04:39.844Z,40.83
2023-05-07T05:07:07.718Z,39.22
2023-05-07T05:09:34.705Z,37.92
2023-05-07T05:12:01.868Z,36.27
2023-05-07T05:14:30.603Z,35.81
2023-05-07T05:16:58.113Z,35.58
2023-05-07T05:19:25.135Z,34.43
2023-05-07T05:21:52.320Z,34.27
2023-05-07T05:24:19.342Z,33.45
2023-05-07T05:26:46.261Z,32.27
2023-05-07T05:29:13.760Z,31.91
2023-05-07T05:31:42.897Z,31.60
2023-05-07T05:34:10.604Z,31.46
2023-05-07T05:36:38.410Z,30.85
2023-05-07T05:39:05.403Z,30.27
2023-05-07T05:41:33.266Z,30.30
2023-05-07T05:44:00.688Z,30.14
2023-05-07T05:46:28.560Z,29.28
2023-05-07T05:48:56.695Z,29.28
2023-05-07T05:51:24.383Z,28.51
2023-05-07T05:53:51.370Z,28.23
2023-05-07T05:56:18.649Z,27.92
2023-05-07T05:58:45.777Z,26.76
2023-05-07T06:01:13.246Z,26.17
2023-05-07T06:03:40.674Z,26.23
2023-05-07T06:06:12.708Z,26.65
2023-05-07T06:08:39.728Z,26.65
2023-05-07T06:11:07.124Z,25.75
2023-05-07T06:13:35.689Z,25.83
2023-05-07T06:16:02.755Z,25.58
2023-05-07T06:18:30.195Z,25.01
2023-05-07T06:20:57.637Z,24.35
2023-05-07T06:23:26.923Z,24.67
2023-05-07T06:25:53.907Z,24.68
2023-05-07T06:28:23.848Z,24.51
2023-05-07T06:30:51.481Z,24.23
2023-05-07T06:33:18.677Z,24.08
2023-05-07T06:35:46.116Z,24.25
2023-05-07T06:38:13.597Z,23.91
2023-05-07T06:40:41.642Z,24.37
2023-05-07T06:43:08.732Z,24.24
2023-05-07T06:45:58.816Z,23.61
2023-05-07T06:48:25.977Z,23.08
2023-05-07T06:50:59.244Z,23.19
2023-05-07T06:53:27.135Z,23.33
2023-05-07T06:55:54.527Z,22.81
2023-05-07T06:58:21.580Z,22.43
2023-05-07T07:00:49.079Z,23.23
2023-05-07T07:03:16.812Z,23.30
2023-05-07T07:05:44.021Z,23.14
2023-05-07T07:19:55.835Z,22.41
2023-05-07T07:22:23.609Z,22.40
2023-05-07T07:24:52.437Z,21.88
2023-05-07T07:27:19.691Z,21.64
2023-05-07T07:29:46.857Z,22.10
2023-05-07T07:32:13.933Z,22.22
2023-05-07T07:34:41.320Z,22.27
2023-05-07T07:37:09.214Z,22.14
2023-05-07T07:39:38.841Z,22.30
2023-05-07T07:42:06.711Z,22.80
2023-05-07T07:44:34.150Z,22.97
2023-05-07T07:47:05.906Z,23.25
2023-05-07T07:49:33.662Z,23.19
2023-05-07T07:52:03.785Z,22.32
2023-05-07T07:54:31.520Z,22.04
2023-05-07T07:56:59.059Z,21.94
2023-05-07T07:59:26.685Z,21.44
2023-05-07T08:01:56.865Z,21.37
2023-05-07T08:04:24.318Z,21.73
2023-05-07T08:06:51.700Z,22.04
2023-05-07T08:09:18.700Z,21.72
2023-05-07T08:11:47.109Z,21.14
2023-05-07T08:14:14.546Z,21.21
2023-05-07T08:16:43.408Z,21.28
2023-05-07T08:19:11.228Z,20.90
2023-05-07T08:21:41.785Z,21.73
2023-05-07T08:24:09.735Z,21.23
2023-05-07T08:26:37.512Z,20.39
2023-05-07T08:29:05.553Z,20.36
2023-05-07T08:31:32.546Z,20.83
2023-05-07T08:33:59.777Z,21.06
2023-05-07T08:36:27.021Z,20.47
2023-05-07T08:38:54.717Z,20.59
2023-05-07T08:41:22.163Z,20.65
2023-05-07T08:43:51.451Z,20.70
2023-05-07T08:46:22.783Z,20.33
2023-05-07T08:48:51.997Z,20.90
2023-05-07T08:51:21.518Z,21.07
2023-05-07T08:53:49.717Z,20.90
2023-05-07T08:56:22.365Z,21.93
2023-05-07T08:58:51.693Z,20.94
2023-05-07T09:01:18.866Z,20.59
2023-05-07T09:03:50.547Z,20.52
2023-05-07T09:06:19.366Z,20.06
2023-05-07T09:08:53.729Z,20.55
2023-05-07T09:11:24.874Z,20.64
2023-05-07T09:13:57.432Z,20.20
2023-05-07T09:16:27.072Z,20.29
2023-05-07T09:18:54.912Z,20.03
2023-05-07T09:21:24.025Z,18.84
2023-05-07T09:23:53.134Z,19.09
2023-05-07T09:26:24.950Z,19.57
2023-05-07T09:28:52.705Z,19.49
2023-05-07T09:31:21.602Z,19.09
2023-05-07T09:33:49.848Z,19.68
2023-05-07T09:36:16.959Z,19.85
2023-05-07T09:38:45.769Z,19.63
2023-05-07T09:41:13.622Z,19.81
2023-05-07T09:43:45.583Z,19.21
2023-05-07T09:46:15.483Z,19.56
2023-05-07T09:48:46.973Z,19.23
2023-05-07T09:51:34.805Z,19.49
2023-05-07T09:54:03.876Z,19.28
2023-05-07T09:56:32.488Z,19.65
2023-05-07T09:59:03.043Z,19.77
2023-05-07T10:01:32.378Z,19.18
2023-05-07T10:03:59.769Z,19.36
2023-05-07T10:06:26.946Z,19.35
2023-05-07T10:08:54.077Z,19.00
2023-05-07T10:11:21.785Z,19.28
2023-05-07T10:13:49.158Z,18.74
2023-05-07T10:16:16.626Z,18.97
2023-05-07T10:18:46.672Z,18.29
2023-05-07T10:21:22.079Z,18.12
2023-05-07T10:23:52.389Z,18.65
2023-05-07T10:26:20.454Z,19.12
2023-05-07T10:28:50.743Z,18.73
2023-05-07T10:31:50.555Z,19.12
2023-05-07T10:34:22.340Z,18.61
2023-05-07T10:36:49.394Z,18.96
2023-05-07T10:39:16.408Z,18.82
2023-05-07T10:41:43.894Z,18.94
2023-05-07T10:44:10.985Z,19.03
2023-05-07T10:46:38.224Z,19.01
2023-05-07T10:49:17.391Z,19.14
2023-05-07T10:52:19.646Z,19.20
2023-05-07T10:55:15.985Z,19.26
2023-05-07T10:57:43.535Z,19.42
2023-05-07T11:00:38.073Z,18.87
2023-05-07T11:03:08.412Z,18.61
2023-05-07T11:05:50.209Z,18.72
2023-05-07T11:08:24.806Z,19.07
2023-05-07T11:11:02.460Z,19.28
2023-05-07T11:13:47.712Z,19.26
2023-05-07T11:16:25.538Z,20.08
2023-05-07T11:18:59.983Z,19.77
2023-05-07T11:21:42.297Z,19.57
2023-05-07T11:24:24.320Z,18.52
2023-05-07T11:27:13.885Z,18.05
2023-05-07T11:29:43.004Z,18.38
2023-05-07T11:32:17.048Z,18.98
2023-05-07T11:34:52.885Z,19.01
2023-05-07T11:37:20.816Z,19.28
2023-05-07T11:40:07.723Z,18.99
2023-05-07T11:42:36.655Z,19.45
2023-05-07T11:45:03.948Z,20.10
2023-05-07T11:47:31.736Z,20.32
2023-05-07T11:50:00.098Z,20.47
2023-05-07T11:52:27.421Z,20.76
2023-05-07T11:54:58.789Z,20.76
2023-05-07T11:57:25.904Z,21.10
2023-05-07T11:59:56.462Z,21.85
2023-05-07T12:02:23.530Z,21.54
2023-05-07T12:04:50.586Z,21.41
2023-05-07T12:07:17.792Z,21.46
2023-05-07T12:09:48.912Z,20.98
2023-05-07T12:12:18.694Z,21.52
2023-05-07T12:14:46.672Z,22.29
2023-05-07T12:17:14.687Z,22.90
2023-05-07T12:19:43.258Z,22.14
2023-05-07T12:22:10.312Z,21.25
2023-05-07T12:24:51.481Z,21.91
2023-05-07T12:27:18.794Z,22.25
2023-05-07T12:29:49.827Z,22.04
2023-05-07T12:32:17.964Z,22.15
2023-05-07T12:34:45.875Z,22.81
2023-05-07T12:37:14.069Z,22.89
2023-05-07T12:39:50.757Z,22.61
2023-05-07T12:42:17.991Z,23.03
2023-05-07T12:44:46.953Z,23.25
2023-05-07T12:47:14.044Z,23.40
2023-05-07T12:49:41.325Z,23.48
2023-05-07T12:52:08.280Z,23.69
2023-05-07T12:54:39.648Z,23.63
2023-05-07T12:57:10.994Z,23.91
2023-05-07T12:59:39.312Z,24.01
2023-05-07T13:02:06.810Z,24.15
2023-05-07T13:04:34.685Z,23.95
2023-05-07T13:07:02.010Z,23.60
2023-05-07T13:09:30.426Z,22.92
2023-05-07T13:11:57.513Z,23.16
2023-05-07T13:14:24.781Z,23.01
2023-05-07T13:16:52.066Z,23.50
2023-05-07T13:19:19.244Z,23.52
2023-05-07T13:21:46.522Z,23.45
2023-05-07T13:24:13.534Z,23.79
2023-05-07T13:26:40.533Z,24.33
2023-05-07T13:29:08.258Z,23.91
2023-05-07T13:31:36.800Z,23.46
2023-05-07T13:34:04.286Z,23.87
2023-05-07T13:36:34.134Z,24.04
2023-05-07T13:39:01.849Z,24.51
2023-05-07T13:41:29.032Z,24.21
2023-05-07T13:44:08.424Z,23.81
2023-05-07T13:46:35.717Z,23.65
2023-05-07T13:49:39.641Z,23.98
2023-05-07T13:52:07.500Z,24.19
2023-05-07T13:54:34.521Z,24.08
2023-05-07T13:57:01.694Z,24.18
2023-05-07T13:59:28.612Z,23.85
2023-05-07T14:01:56.292Z,24.13
2023-05-07T14:04:23.340Z,24.34
2023-05-07T14:06:50.390Z,24.76
2023-05-07T14:09:17.501Z,24.49
2023-05-07T14:11:44.465Z,24.84
2023-05-07T14:14:24.287Z,25.06
2023-05-07T14:16:52.693Z,24.82
2023-05-07T14:22:36.218Z,24.32
2023-05-07T14:25:06.974Z,24.08
2023-05-07T14:27:34.869Z,24.01
2023-05-07T14:30:02.478Z,24.13
2023-05-07T14:44:00.098Z,25.55
2023-05-07T14:46:31.996Z,25.90
2023-05-07T14:49:06.009Z,25.85
2023-05-07T14:51:34.140Z,25.74
2023-05-07T14:54:03.113Z,25.70
2023-05-07T14:56:30.170Z,25.67
2023-05-07T14:58:57.139Z,25.69
2023-05-07T15:01:24.165Z,25.49
2023-05-07T15:06:41.997Z,25.82
2023-05-07T15:08:40.988Z,25.42
2023-05-07T15:11:50.991Z,25.40
2023-05-07T15:15:06.326Z,25.69
2023-05-07T15:17:33.791Z,26.09
2023-05-07T15:20:00.898Z,26.53
2023-05-07T15:22:29.429Z,26.69
2023-05-07T15:24:57.919Z,26.49
2023-05-07T15:30:41.623Z,26.48
2023-05-07T15:33:08.837Z,26.84
2023-05-07T15:35:35.949Z,26.80
2023-05-07T15:38:03.511Z,26.76
2023-05-07T15:40:31.865Z,26.81
2023-05-07T15:42:58.777Z,27.08
2023-05-07T15:45:25.713Z,26.78
2023-05-07T15:47:52.724Z,26.95
2023-05-07T15:50:19.938Z,27.08
2023-05-07T15:52:46.937Z,26.91
2023-05-07T15:55:14.515Z,26.51
2023-05-07T15:57:41.351Z,26.72
2023-05-07T16:00:10.367Z,27.02
2023-05-07T16:02:41.205Z,27.25
2023-05-07T16:05:10.538Z,27.08
2023-05-07T16:07:39.263Z,26.82
2023-05-07T16:10:07.810Z,26.91
2023-05-07T16:12:35.833Z,27.08
2023-05-07T16:15:03.306Z,27.36
2023-05-07T16:17:31.584Z,27.60
2023-05-07T16:19:58.495Z,27.39
2023-05-07T16:22:25.643Z,26.97
2023-05-07T16:24:52.760Z,26.68
2023-05-07T16:27:19.738Z,26.93
2023-05-07T16:29:46.577Z,27.06
2023-05-07T16:32:13.504Z,27.61
2023-05-07T16:34:40.383Z,27.81
2023-05-07T16:37:07.258Z,27.89
2023-05-07T16:39:34.251Z,27.95
2023-05-07T16:42:01.131Z,27.96
2023-05-07T16:44:28.615Z,28.42
2023-05-07T16:46:55.457Z,28.62
2023-05-07T16:49:22.263Z,29.16
2023-05-07T16:51:51.537Z,29.44
2023-05-07T16:54:18.548Z,29.91
2023-05-07T16:56:45.345Z,30.11
2023-05-07T16:59:12.093Z,30.22
2023-05-07T17:01:39.204Z,30.89
2023-05-07T17:04:06.372Z,30.86
2023-05-07T17:06:33.541Z,30.86
2023-05-07T17:09:00.549Z,30.83
2023-05-07T17:11:30.582Z,30.89
2023-05-07T17:13:57.644Z,31.19
2023-05-07T17:16:24.690Z,31.59
2023-05-07T17:18:51.764Z,31.91
2023-05-07T17:21:18.610Z,31.78
2023-05-07T17:23:45.558Z,31.90
2023-05-07T17:26:13.927Z,32.11
2023-05-07T17:28:40.868Z,32.36
2023-05-07T17:31:08.936Z,32.43
2023-05-07T17:33:36.274Z,32.39
2023-05-07T17:36:03.276Z,32.40
2023-05-07T17:38:31.474Z,32.50
2023-05-07T17:40:58.892Z,32.60
2023-05-07T17:43:25.644Z,32.57
2023-05-07T17:45:52.725Z,32.69
2023-05-07T17:48:20.698Z,32.78
2023-05-07T17:50:47.528Z,33.40
2023-05-07T17:53:14.419Z,33.31
2023-05-07T17:55:44.604Z,33.17
2023-05-07T17:58:11.557Z,33.48
2023-05-07T18:00:39.090Z,33.66
2023-05-07T18:03:06.645Z,33.74
2023-05-07T18:05:37.164Z,33.61
2023-05-07T18:08:04.605Z,33.75
2023-05-07T18:10:32.056Z,33.97
2023-05-07T18:12:58.913Z,34.20
2023-05-07T18:15:26.690Z,33.99
2023-05-07T18:17:53.583Z,34.07
2023-05-07T18:20:20.450Z,34.19
2023-05-07T18:22:47.361Z,34.16
2023-05-07T18:25:14.511Z,34.46
2023-05-07T18:27:41.351Z,34.56
2023-05-07T18:30:09.519Z,34.47
2023-05-07T18:32:37.077Z,34.61
2023-05-07T18:35:04.703Z,34.65
2023-05-07T18:37:32.048Z,34.87
2023-05-07T18:40:03.445Z,34.91
2023-05-07T18:42:31.048Z,35.09
2023-05-07T18:44:57.915Z,35.16
2023-05-07T18:47:25.145Z,35.17
2023-05-07T18:49:51.992Z,35.03
2023-05-07T18:52:55.363Z,35.24
2023-05-07T18:55:22.664Z,35.39
2023-05-07T18:57:49.671Z,35.90
2023-05-07T19:00:16.613Z,35.83
2023-05-07T19:02:44.443Z,35.65
2023-05-07T19:05:12.557Z,36.00
2023-05-07T19:07:40.196Z,36.04
2023-05-07T19:10:07.485Z,36.06
2023-05-07T19:12:34.899Z,36.14
2023-05-07T19:15:01.717Z,36.22
2023-05-07T19:17:29.349Z,36.42
2023-05-07T19:19:56.405Z,36.45
2023-05-07T19:22:23.183Z,36.56
2023-05-07T19:24:50.108Z,36.87
2023-05-07T19:27:17.520Z,37.36
2023-05-07T19:29:44.583Z,37.61
2023-05-07T19:32:11.628Z,37.67
2023-05-07T19:34:38.663Z,37.46
2023-05-07T19:37:05.523Z,37.57
2023-05-07T19:39:33.040Z,37.52
2023-05-07T19:42:00.754Z,37.59
2023-05-07T19:44:27.564Z,37.80
2023-05-07T19:46:54.360Z,37.97
2023-05-07T19:49:21.335Z,37.81
2023-05-07T19:51:48.066Z,38.08
2023-05-07T19:54:15.068Z,38.27
2023-05-07T19:56:41.928Z,38.46
2023-05-07T19:59:08.825Z,37.96
2023-05-07T20:01:36.074Z,38.04
2023-05-07T20:04:03.251Z,38.28
2023-05-07T20:06:31.209Z,38.42
2023-05-07T20:08:58.370Z,38.64
2023-05-07T20:11:26.342Z,38.41
2023-05-07T20:13:53.218Z,38.54
2023-05-07T20:16:20.355Z,38.38
2023-05-07T20:18:47.334Z,38.39
2023-05-07T20:21:14.889Z,38.50
2023-05-07T20:23:41.656Z,38.46
2023-05-07T20:26:09.078Z,38.54
2023-05-07T20:28:35.962Z,38.25
2023-05-07T20:31:03.228Z,38.40
2023-05-07T20:33:30.124Z,38.52
2023-05-07T20:35:57.685Z,39.00
2023-05-07T20:38:26.451Z,38.92
2023-05-07T20:40:53.363Z,38.86
2023-05-07T20:43:21.006Z,38.75
2023-05-07T20:45:48.376Z,38.76
2023-05-07T20:48:15.831Z,38.68
2023-05-07T20:50:42.872Z,38.92
2023-05-07T20:53:09.688Z,38.82
2023-05-07T20:55:37.303Z,39.10
2023-05-07T20:58:04.015Z,39.07
2023-05-07T21:00:32.183Z,39.02
2023-05-07T21:02:59.581Z,38.95
2023-05-07T21:05:26.404Z,39.03
2023-05-07T21:07:53.312Z,38.99
2023-05-07T21:10:20.402Z,39.16
2023-05-07T21:12:47.783Z,39.45
2023-05-07T21:15:14.616Z,39.57
2023-05-07T21:17:41.960Z,39.76
2023-05-07T21:20:09.081Z,39.94
2023-05-07T21:22:36.007Z,40.10
2023-05-07T21:25:02.965Z,39.96
2023-05-07T21:27:30.180Z,40.17
2023-05-07T21:30:02.777Z,40.29
2023-05-07T21:32:30.557Z,40.35
2023-05-07T21:34:58.681Z,40.65
2023-05-07T21:37:25.443Z,40.92
2023-05-07T21:39:52.519Z,40.82
2023-05-07T21:42:20.798Z,40.98
2023-05-07T21:44:49.445Z,41.19
2023-05-07T21:47:16.393Z,41.22
2023-05-07T21:49:43.140Z,41.27
2023-05-07T21:52:13.779Z,41.43
2023-05-07T21:54:41.562Z,41.69
2023-05-07T21:57:08.657Z,41.66
2023-05-07T21:59:37.451Z,41.77
2023-05-07T22:02:05.024Z,41.82
2023-05-07T22:04:32.039Z,41.84
2023-05-07T22:06:58.905Z,42.02
2023-05-07T22:09:26.632Z,41.96
2023-05-07T22:11:54.582Z,41.80
2023-05-07T22:14:22.214Z,41.88
2023-05-07T22:16:49.179Z,41.71
2023-05-07T22:19:16.083Z,41.46
2023-05-07T22:21:43.226Z,41.36
2023-05-07T22:24:10.376Z,41.15
2023-05-07T22:26:37.282Z,40.96
2023-05-07T22:29:04.113Z,40.81
2023-05-07T22:31:31.661Z,40.69
2023-05-07T22:33:58.656Z,41.05
2023-05-07T22:36:25.413Z,40.73
2023-05-07T22:38:52.357Z,40.62
2023-05-07T22:41:19.198Z,40.45
2023-05-07T22:43:46.048Z,40.57
2023-05-07T22:46:13.095Z,40.81
2023-05-07T22:48:39.804Z,40.92
2023-05-07T22:51:07.119Z,40.92
2023-05-07T22:53:34.108Z,40.69
2023-05-07T22:56:05.601Z,40.86
2023-05-07T22:58:32.976Z,40.77
2023-05-07T23:00:59.975Z,40.90
2023-05-07T23:03:26.818Z,41.00
2023-05-07T23:05:53.918Z,40.72
2023-05-07T23:08:21.190Z,40.80
2023-05-07T23:10:48.028Z,41.02
2023-05-07T23:13:16.709Z,41.14
2023-05-07T23:15:43.741Z,41.32
2023-05-07T23:18:11.125Z,40.99
2023-05-07T23:20:40.702Z,40.83
2023-05-07T23:23:07.724Z,40.79
2023-05-07T23:25:34.519Z,41.21
2023-05-07T23:28:03.282Z,41.44
2023-05-07T23:30:30.884Z,41.59
2023-05-07T23:32:57.730Z,41.76
2023-05-07T23:35:24.576Z,41.58
2023-05-07T23:37:51.337Z,41.73
2023-05-07T23:40:18.271Z,41.66
2023-05-07T23:42:45.109Z,41.67
2023-05-07T23:45:11.993Z,41.49
2023-05-07T23:47:39.573Z,41.55
2023-05-07T23:50:06.690Z,41.72
2023-05-07T23:52:34.046Z,41.75
2023-05-07T23:55:00.826Z,41.84
2023-05-07T23:57:28.079Z,42.32
2023-05-07T23:59:55.180Z,42.21
